sensor_id;sensor_type;location;lat;lon;timestamp;P1;durP1;ratioP1;P2;durP2;ratioP2
52972;SDS011;38837;48.916;2.336;2024-01-15T00:00:09;10.88;;;7.88;;
52972;SDS011;38837;48.916;2.336;2024-01-15T00:02:11;10.82;;;7.63;;
52972;SDS011;38837;48.916;2.336;2024-01-15T00:04:13;10.77;;;7.95;;
52972;SDS011;38837;48.916;2.336;2024-01-15T00:06:15;11.25;;;8.02;;
52972;SDS011;38837;48.916;2.336;2024-01-15T00:08:17;10.60;;;7.95;;
52972;SDS011;38837;48.916;2.336;2024-01-15T00:10:19;11.23;;;7.70;;
52972;SDS011;38837;48.916;2.336;2024-01-15T00:12:21;10.70;;;8.13;;
52972;SDS011;38837;48.916;2.336;2024-01-15T00:14:23;11.45;;;7.90;;
52972;SDS011;38837;48.916;2.336;2024-01-15T00:16:25;9.35;;;7.25;;
52972;SDS011;38837;48.916;2.336;2024-01-15T00:18:27;11.23;;;8.23;;
52972;SDS011;38837;48.916;2.336;2024-01-15T00:20:29;10.60;;;7.55;;
52972;SDS011;38837;48.916;2.336;2024-01-15T00:22:31;9.52;;;6.82;;
52972;SDS011;38837;48.916;2.336;2024-01-15T00:24:33;10.88;;;7.57;;
52972;SDS011;38837;48.916;2.336;2024-01-15T00:26:35;10.45;;;7.25;;
52972;SDS011;38837;48.916;2.336;2024-01-15T00:28:37;10.43;;;7.07;;
52972;SDS011;38837;48.916;2.336;2024-01-15T00:30:39;10.30;;;7.18;;
52972;SDS011;38837;48.916;2.336;2024-01-15T00:32:41;9.85;;;6.90;;
52972;SDS011;38837;48.916;2.336;2024-01-15T00:34:43;10.05;;;7.07;;
52972;SDS011;38837;48.916;2.336;2024-01-15T00:36:45;10.57;;;7.40;;
52972;SDS011;38837;48.916;2.336;2024-01-15T00:38:47;10.13;;;7.75;;
52972;SDS011;38837;48.916;2.336;2024-01-15T00:40:49;10.60;;;7.10;;
52972;SDS011;38837;48.916;2.336;2024-01-15T00:42:51;9.52;;;7.28;;
52972;SDS011;38837;48.916;2.336;2024-01-15T00:44:53;8.82;;;6.38;;
52972;SDS011;38837;48.916;2.336;2024-01-15T00:46:55;8.45;;;6.70;;
52972;SDS011;38837;48.916;2.336;2024-01-15T00:48:57;10.55;;;7.50;;
52972;SDS011;38837;48.916;2.336;2024-01-15T00:50:59;11.57;;;7.00;;
52972;SDS011;38837;48.916;2.336;2024-01-15T00:53:01;9.85;;;7.35;;
52972;SDS011;38837;48.916;2.336;2024-01-15T00:55:03;10.43;;;7.28;;
52972;SDS011;38837;48.916;2.336;2024-01-15T00:57:05;10.18;;;6.85;;
52972;SDS011;38837;48.916;2.336;2024-01-15T00:59:07;8.93;;;6.80;;
52972;SDS011;38837;48.916;2.336;2024-01-15T01:01:11;10.85;;;7.47;;
52972;SDS011;38837;48.916;2.336;2024-01-15T01:03:13;10.98;;;7.32;;
52972;SDS011;38837;48.916;2.336;2024-01-15T01:05:16;8.82;;;6.65;;
52972;SDS011;38837;48.916;2.336;2024-01-15T01:07:18;11.48;;;7.28;;
52972;SDS011;38837;48.916;2.336;2024-01-15T01:09:20;9.25;;;6.65;;
52972;SDS011;38837;48.916;2.336;2024-01-15T01:11:22;11.15;;;7.03;;
52972;SDS011;38837;48.916;2.336;2024-01-15T01:13:24;10.23;;;7.05;;
52972;SDS011;38837;48.916;2.336;2024-01-15T01:15:26;9.20;;;6.45;;
52972;SDS011;38837;48.916;2.336;2024-01-15T01:17:28;9.57;;;7.28;;
52972;SDS011;38837;48.916;2.336;2024-01-15T01:19:32;9.05;;;6.53;;
52972;SDS011;38837;48.916;2.336;2024-01-15T01:21:34;9.10;;;6.22;;
52972;SDS011;38837;48.916;2.336;2024-01-15T01:23:36;10.00;;;6.65;;
52972;SDS011;38837;48.916;2.336;2024-01-15T01:25:38;8.98;;;6.55;;
52972;SDS011;38837;48.916;2.336;2024-01-15T01:27:40;10.63;;;7.18;;
52972;SDS011;38837;48.916;2.336;2024-01-15T01:29:42;9.10;;;6.20;;
52972;SDS011;38837;48.916;2.336;2024-01-15T01:31:44;11.55;;;7.40;;
52972;SDS011;38837;48.916;2.336;2024-01-15T01:33:46;10.27;;;7.63;;
52972;SDS011;38837;48.916;2.336;2024-01-15T01:35:48;9.18;;;6.90;;
52972;SDS011;38837;48.916;2.336;2024-01-15T01:37:50;9.88;;;6.85;;
52972;SDS011;38837;48.916;2.336;2024-01-15T01:39:52;8.20;;;6.53;;
52972;SDS011;38837;48.916;2.336;2024-01-15T01:41:54;9.90;;;7.13;;
52972;SDS011;38837;48.916;2.336;2024-01-15T01:43:56;9.85;;;7.03;;
52972;SDS011;38837;48.916;2.336;2024-01-15T01:45:58;9.73;;;6.68;;
52972;SDS011;38837;48.916;2.336;2024-01-15T01:48:02;9.40;;;6.93;;
52972;SDS011;38837;48.916;2.336;2024-01-15T01:50:06;10.57;;;7.43;;
52972;SDS011;38837;48.916;2.336;2024-01-15T01:52:08;8.07;;;6.00;;
52972;SDS011;38837;48.916;2.336;2024-01-15T01:54:11;8.57;;;6.70;;
52972;SDS011;38837;48.916;2.336;2024-01-15T01:56:15;10.00;;;7.07;;
52972;SDS011;38837;48.916;2.336;2024-01-15T01:58:17;8.50;;;6.35;;
52972;SDS011;38837;48.916;2.336;2024-01-15T02:00:20;9.52;;;7.15;;
52972;SDS011;38837;48.916;2.336;2024-01-15T02:02:22;9.52;;;7.00;;
52972;SDS011;38837;48.916;2.336;2024-01-15T02:04:25;7.20;;;5.70;;
52972;SDS011;38837;48.916;2.336;2024-01-15T02:06:27;9.55;;;6.95;;
52972;SDS011;38837;48.916;2.336;2024-01-15T02:08:30;8.18;;;6.22;;
52972;SDS011;38837;48.916;2.336;2024-01-15T02:10:31;11.25;;;6.10;;
52972;SDS011;38837;48.916;2.336;2024-01-15T02:12:33;9.52;;;6.50;;
52972;SDS011;38837;48.916;2.336;2024-01-15T02:14:35;8.93;;;6.18;;
52972;SDS011;38837;48.916;2.336;2024-01-15T02:16:37;8.48;;;6.15;;
52972;SDS011;38837;48.916;2.336;2024-01-15T02:18:40;10.35;;;6.68;;
52972;SDS011;38837;48.916;2.336;2024-01-15T02:20:46;9.30;;;6.72;;
52972;SDS011;38837;48.916;2.336;2024-01-15T02:22:48;11.18;;;6.93;;
52972;SDS011;38837;48.916;2.336;2024-01-15T02:24:49;7.25;;;5.75;;
52972;SDS011;38837;48.916;2.336;2024-01-15T02:26:52;10.35;;;6.30;;
52972;SDS011;38837;48.916;2.336;2024-01-15T02:28:53;8.50;;;6.55;;
52972;SDS011;38837;48.916;2.336;2024-01-15T02:30:56;7.85;;;6.07;;
52972;SDS011;38837;48.916;2.336;2024-01-15T02:32:58;8.43;;;6.25;;
52972;SDS011;38837;48.916;2.336;2024-01-15T02:35:00;8.75;;;6.30;;
52972;SDS011;38837;48.916;2.336;2024-01-15T02:37:02;9.57;;;6.72;;
52972;SDS011;38837;48.916;2.336;2024-01-15T02:39:04;9.13;;;6.13;;
52972;SDS011;38837;48.916;2.336;2024-01-15T02:41:06;8.98;;;6.18;;
52972;SDS011;38837;48.916;2.336;2024-01-15T02:43:08;9.30;;;6.18;;
52972;SDS011;38837;48.916;2.336;2024-01-15T02:45:10;10.77;;;7.07;;
52972;SDS011;38837;48.916;2.336;2024-01-15T02:47:11;9.73;;;6.47;;
52972;SDS011;38837;48.916;2.336;2024-01-15T02:49:14;11.18;;;6.55;;
52972;SDS011;38837;48.916;2.336;2024-01-15T02:51:16;9.00;;;5.82;;
52972;SDS011;38837;48.916;2.336;2024-01-15T02:53:18;8.40;;;6.35;;
52972;SDS011;38837;48.916;2.336;2024-01-15T02:55:20;9.98;;;6.85;;
52972;SDS011;38837;48.916;2.336;2024-01-15T02:57:22;7.57;;;5.65;;
52972;SDS011;38837;48.916;2.336;2024-01-15T02:59:24;9.48;;;6.40;;
52972;SDS011;38837;48.916;2.336;2024-01-15T03:01:25;8.73;;;5.57;;
52972;SDS011;38837;48.916;2.336;2024-01-15T03:03:27;8.15;;;5.75;;
52972;SDS011;38837;48.916;2.336;2024-01-15T03:05:30;10.98;;;7.00;;
52972;SDS011;38837;48.916;2.336;2024-01-15T03:07:32;7.38;;;5.90;;
52972;SDS011;38837;48.916;2.336;2024-01-15T03:09:33;7.13;;;5.38;;
52972;SDS011;38837;48.916;2.336;2024-01-15T03:11:38;7.32;;;6.20;;
52972;SDS011;38837;48.916;2.336;2024-01-15T03:13:40;7.38;;;5.65;;
52972;SDS011;38837;48.916;2.336;2024-01-15T03:15:43;8.68;;;5.68;;
52972;SDS011;38837;48.916;2.336;2024-01-15T03:17:45;7.93;;;5.70;;
52972;SDS011;38837;48.916;2.336;2024-01-15T03:19:47;9.43;;;6.22;;
52972;SDS011;38837;48.916;2.336;2024-01-15T03:21:51;7.47;;;5.43;;
52972;SDS011;38837;48.916;2.336;2024-01-15T03:23:52;8.43;;;6.18;;
52972;SDS011;38837;48.916;2.336;2024-01-15T03:25:55;9.38;;;6.13;;
52972;SDS011;38837;48.916;2.336;2024-01-15T03:27:56;7.68;;;5.53;;
52972;SDS011;38837;48.916;2.336;2024-01-15T03:29:58;8.30;;;5.70;;
52972;SDS011;38837;48.916;2.336;2024-01-15T03:32:00;9.13;;;5.90;;
52972;SDS011;38837;48.916;2.336;2024-01-15T03:34:02;8.88;;;6.13;;
52972;SDS011;38837;48.916;2.336;2024-01-15T03:36:04;7.25;;;5.60;;
52972;SDS011;38837;48.916;2.336;2024-01-15T03:38:06;8.77;;;5.65;;
52972;SDS011;38837;48.916;2.336;2024-01-15T03:40:09;8.13;;;5.97;;
52972;SDS011;38837;48.916;2.336;2024-01-15T03:42:11;7.97;;;5.63;;
52972;SDS011;38837;48.916;2.336;2024-01-15T03:44:13;9.18;;;5.75;;
52972;SDS011;38837;48.916;2.336;2024-01-15T03:46:15;8.40;;;5.90;;
52972;SDS011;38837;48.916;2.336;2024-01-15T03:48:17;8.80;;;6.50;;
52972;SDS011;38837;48.916;2.336;2024-01-15T03:50:19;7.90;;;5.93;;
52972;SDS011;38837;48.916;2.336;2024-01-15T03:52:21;8.27;;;5.85;;
52972;SDS011;38837;48.916;2.336;2024-01-15T03:54:23;9.23;;;5.82;;
52972;SDS011;38837;48.916;2.336;2024-01-15T03:56:25;8.10;;;6.00;;
52972;SDS011;38837;48.916;2.336;2024-01-15T03:58:26;7.57;;;5.95;;
52972;SDS011;38837;48.916;2.336;2024-01-15T04:00:28;7.50;;;5.80;;
52972;SDS011;38837;48.916;2.336;2024-01-15T04:02:30;7.80;;;5.72;;
52972;SDS011;38837;48.916;2.336;2024-01-15T04:04:32;9.27;;;6.25;;
52972;SDS011;38837;48.916;2.336;2024-01-15T04:06:34;9.07;;;6.45;;
52972;SDS011;38837;48.916;2.336;2024-01-15T04:08:36;8.00;;;5.85;;
52972;SDS011;38837;48.916;2.336;2024-01-15T04:10:38;8.68;;;5.88;;
52972;SDS011;38837;48.916;2.336;2024-01-15T04:12:40;7.35;;;5.70;;
52972;SDS011;38837;48.916;2.336;2024-01-15T04:14:42;8.38;;;6.13;;
52972;SDS011;38837;48.916;2.336;2024-01-15T04:16:44;7.20;;;5.43;;
52972;SDS011;38837;48.916;2.336;2024-01-15T04:18:45;7.78;;;5.28;;
52972;SDS011;38837;48.916;2.336;2024-01-15T04:20:47;6.00;;;4.78;;
52972;SDS011;38837;48.916;2.336;2024-01-15T04:22:49;7.80;;;5.78;;
52972;SDS011;38837;48.916;2.336;2024-01-15T04:24:51;7.70;;;5.57;;
52972;SDS011;38837;48.916;2.336;2024-01-15T04:26:53;7.03;;;5.18;;
52972;SDS011;38837;48.916;2.336;2024-01-15T04:28:55;7.80;;;6.00;;
52972;SDS011;38837;48.916;2.336;2024-01-15T04:30:57;8.90;;;5.85;;
52972;SDS011;38837;48.916;2.336;2024-01-15T04:32:59;8.45;;;5.85;;
52972;SDS011;38837;48.916;2.336;2024-01-15T04:35:01;7.55;;;5.35;;
52972;SDS011;38837;48.916;2.336;2024-01-15T04:37:03;7.70;;;5.72;;
52972;SDS011;38837;48.916;2.336;2024-01-15T04:39:04;8.45;;;5.50;;
52972;SDS011;38837;48.916;2.336;2024-01-15T04:41:09;6.85;;;5.18;;
52972;SDS011;38837;48.916;2.336;2024-01-15T04:43:13;6.90;;;5.28;;
52972;SDS011;38837;48.916;2.336;2024-01-15T04:45:14;9.35;;;5.70;;
52972;SDS011;38837;48.916;2.336;2024-01-15T04:47:16;7.22;;;5.07;;
52972;SDS011;38837;48.916;2.336;2024-01-15T04:49:18;7.28;;;5.38;;
52972;SDS011;38837;48.916;2.336;2024-01-15T04:51:20;7.68;;;5.57;;
52972;SDS011;38837;48.916;2.336;2024-01-15T04:53:22;6.93;;;5.13;;
52972;SDS011;38837;48.916;2.336;2024-01-15T04:55:24;7.05;;;5.43;;
52972;SDS011;38837;48.916;2.336;2024-01-15T04:57:26;7.07;;;4.88;;
52972;SDS011;38837;48.916;2.336;2024-01-15T04:59:28;6.20;;;4.65;;
52972;SDS011;38837;48.916;2.336;2024-01-15T05:01:33;7.35;;;5.18;;
52972;SDS011;38837;48.916;2.336;2024-01-15T05:03:35;7.55;;;5.40;;
52972;SDS011;38837;48.916;2.336;2024-01-15T05:05:37;6.53;;;4.93;;
52972;SDS011;38837;48.916;2.336;2024-01-15T05:07:39;6.85;;;5.10;;
52972;SDS011;38837;48.916;2.336;2024-01-15T05:09:41;7.93;;;5.18;;
52972;SDS011;38837;48.916;2.336;2024-01-15T05:11:43;7.82;;;5.40;;
52972;SDS011;38837;48.916;2.336;2024-01-15T05:13:45;6.45;;;4.82;;
52972;SDS011;38837;48.916;2.336;2024-01-15T05:15:47;6.63;;;5.10;;
52972;SDS011;38837;48.916;2.336;2024-01-15T05:17:49;8.98;;;5.53;;
52972;SDS011;38837;48.916;2.336;2024-01-15T05:19:50;7.32;;;5.20;;
52972;SDS011;38837;48.916;2.336;2024-01-15T05:21:53;6.80;;;5.05;;
52972;SDS011;38837;48.916;2.336;2024-01-15T05:23:55;8.30;;;5.53;;
52972;SDS011;38837;48.916;2.336;2024-01-15T05:25:57;7.38;;;5.28;;
52972;SDS011;38837;48.916;2.336;2024-01-15T05:27:59;7.07;;;5.43;;
52972;SDS011;38837;48.916;2.336;2024-01-15T05:30:01;6.30;;;4.75;;
52972;SDS011;38837;48.916;2.336;2024-01-15T05:32:03;7.68;;;5.03;;
52972;SDS011;38837;48.916;2.336;2024-01-15T05:34:05;9.27;;;5.57;;
52972;SDS011;38837;48.916;2.336;2024-01-15T05:36:07;8.70;;;5.82;;
52972;SDS011;38837;48.916;2.336;2024-01-15T05:38:09;7.05;;;5.38;;
52972;SDS011;38837;48.916;2.336;2024-01-15T05:40:11;7.60;;;5.18;;
52972;SDS011;38837;48.916;2.336;2024-01-15T05:42:14;6.55;;;4.78;;
52972;SDS011;38837;48.916;2.336;2024-01-15T05:44:16;6.93;;;4.93;;
52972;SDS011;38837;48.916;2.336;2024-01-15T05:46:18;6.78;;;4.90;;
52972;SDS011;38837;48.916;2.336;2024-01-15T05:48:20;6.15;;;4.88;;
52972;SDS011;38837;48.916;2.336;2024-01-15T05:50:22;7.45;;;5.32;;
52972;SDS011;38837;48.916;2.336;2024-01-15T05:52:24;7.43;;;5.15;;
52972;SDS011;38837;48.916;2.336;2024-01-15T05:54:26;6.03;;;4.50;;
52972;SDS011;38837;48.916;2.336;2024-01-15T05:56:28;7.20;;;5.07;;
52972;SDS011;38837;48.916;2.336;2024-01-15T05:58:30;6.10;;;4.40;;
52972;SDS011;38837;48.916;2.336;2024-01-15T06:00:34;7.32;;;4.88;;
52972;SDS011;38837;48.916;2.336;2024-01-15T06:02:37;6.63;;;4.95;;
52972;SDS011;38837;48.916;2.336;2024-01-15T06:04:40;6.10;;;4.55;;
52972;SDS011;38837;48.916;2.336;2024-01-15T06:06:42;7.97;;;4.50;;
52972;SDS011;38837;48.916;2.336;2024-01-15T06:08:44;8.52;;;5.30;;
52972;SDS011;38837;48.916;2.336;2024-01-15T06:10:46;6.10;;;4.60;;
52972;SDS011;38837;48.916;2.336;2024-01-15T06:12:47;9.30;;;5.22;;
52972;SDS011;38837;48.916;2.336;2024-01-15T06:14:49;7.38;;;5.30;;
52972;SDS011;38837;48.916;2.336;2024-01-15T06:16:52;7.07;;;5.05;;
52972;SDS011;38837;48.916;2.336;2024-01-15T06:18:54;6.25;;;4.60;;
52972;SDS011;38837;48.916;2.336;2024-01-15T06:20:56;6.43;;;4.80;;
52972;SDS011;38837;48.916;2.336;2024-01-15T06:22:57;6.55;;;4.78;;
52972;SDS011;38837;48.916;2.336;2024-01-15T06:24:59;6.53;;;4.50;;
52972;SDS011;38837;48.916;2.336;2024-01-15T06:27:02;7.47;;;5.03;;
52972;SDS011;38837;48.916;2.336;2024-01-15T06:29:03;7.15;;;5.20;;
52972;SDS011;38837;48.916;2.336;2024-01-15T06:31:06;7.13;;;4.53;;
52972;SDS011;38837;48.916;2.336;2024-01-15T06:33:13;6.75;;;4.78;;
52972;SDS011;38837;48.916;2.336;2024-01-15T06:35:15;6.20;;;4.45;;
52972;SDS011;38837;48.916;2.336;2024-01-15T06:37:19;6.55;;;4.90;;
52972;SDS011;38837;48.916;2.336;2024-01-15T06:39:21;7.95;;;5.07;;
52972;SDS011;38837;48.916;2.336;2024-01-15T06:41:23;5.90;;;4.30;;
52972;SDS011;38837;48.916;2.336;2024-01-15T06:43:26;5.32;;;4.18;;
52972;SDS011;38837;48.916;2.336;2024-01-15T06:45:28;7.43;;;4.68;;
52972;SDS011;38837;48.916;2.336;2024-01-15T06:47:30;6.50;;;4.72;;
52972;SDS011;38837;48.916;2.336;2024-01-15T06:49:33;5.00;;;4.43;;
52972;SDS011;38837;48.916;2.336;2024-01-15T06:51:36;5.05;;;4.25;;
52972;SDS011;38837;48.916;2.336;2024-01-15T06:53:38;6.28;;;4.88;;
52972;SDS011;38837;48.916;2.336;2024-01-15T06:55:40;6.60;;;4.90;;
52972;SDS011;38837;48.916;2.336;2024-01-15T06:57:42;6.53;;;4.30;;
52972;SDS011;38837;48.916;2.336;2024-01-15T06:59:44;5.82;;;4.60;;
52972;SDS011;38837;48.916;2.336;2024-01-15T07:01:46;7.25;;;4.32;;
52972;SDS011;38837;48.916;2.336;2024-01-15T07:03:48;6.00;;;4.43;;
52972;SDS011;38837;48.916;2.336;2024-01-15T07:05:50;5.93;;;4.30;;
52972;SDS011;38837;48.916;2.336;2024-01-15T07:07:52;7.35;;;4.85;;
52972;SDS011;38837;48.916;2.336;2024-01-15T07:09:54;6.22;;;4.70;;
52972;SDS011;38837;48.916;2.336;2024-01-15T07:11:55;6.57;;;4.25;;
52972;SDS011;38837;48.916;2.336;2024-01-15T07:13:59;6.57;;;4.57;;
52972;SDS011;38837;48.916;2.336;2024-01-15T07:16:01;7.97;;;4.82;;
52972;SDS011;38837;48.916;2.336;2024-01-15T07:18:03;5.65;;;3.78;;
52972;SDS011;38837;48.916;2.336;2024-01-15T07:20:08;6.60;;;5.03;;
52972;SDS011;38837;48.916;2.336;2024-01-15T07:22:11;6.85;;;5.05;;
52972;SDS011;38837;48.916;2.336;2024-01-15T07:24:13;6.05;;;4.55;;
52972;SDS011;38837;48.916;2.336;2024-01-15T07:26:15;6.55;;;4.97;;
52972;SDS011;38837;48.916;2.336;2024-01-15T07:28:17;6.72;;;4.30;;
52972;SDS011;38837;48.916;2.336;2024-01-15T07:30:19;7.60;;;4.72;;
52972;SDS011;38837;48.916;2.336;2024-01-15T07:34:25;8.40;;;5.30;;
52972;SDS011;38837;48.916;2.336;2024-01-15T07:36:27;7.03;;;4.72;;
52972;SDS011;38837;48.916;2.336;2024-01-15T07:38:29;6.75;;;4.97;;
52972;SDS011;38837;48.916;2.336;2024-01-15T07:40:31;6.88;;;4.68;;
52972;SDS011;38837;48.916;2.336;2024-01-15T07:42:33;9.07;;;4.85;;
52972;SDS011;38837;48.916;2.336;2024-01-15T07:44:35;6.72;;;4.97;;
52972;SDS011;38837;48.916;2.336;2024-01-15T07:46:37;8.00;;;4.80;;
52972;SDS011;38837;48.916;2.336;2024-01-15T07:48:40;7.50;;;5.38;;
52972;SDS011;38837;48.916;2.336;2024-01-15T07:50:42;8.05;;;5.70;;
52972;SDS011;38837;48.916;2.336;2024-01-15T07:52:44;6.32;;;4.90;;
52972;SDS011;38837;48.916;2.336;2024-01-15T07:54:46;7.60;;;5.63;;
52972;SDS011;38837;48.916;2.336;2024-01-15T07:58:57;6.05;;;4.45;;
52972;SDS011;38837;48.916;2.336;2024-01-15T08:00:58;6.72;;;5.03;;
52972;SDS011;38837;48.916;2.336;2024-01-15T08:03:00;7.47;;;5.43;;
52972;SDS011;38837;48.916;2.336;2024-01-15T08:05:04;8.18;;;4.68;;
52972;SDS011;38837;48.916;2.336;2024-01-15T08:07:07;7.47;;;4.82;;
52972;SDS011;38837;48.916;2.336;2024-01-15T08:09:09;7.68;;;5.35;;
52972;SDS011;38837;48.916;2.336;2024-01-15T08:11:11;7.20;;;5.10;;
52972;SDS011;38837;48.916;2.336;2024-01-15T08:13:13;8.48;;;5.15;;
52972;SDS011;38837;48.916;2.336;2024-01-15T08:15:15;6.97;;;4.85;;
52972;SDS011;38837;48.916;2.336;2024-01-15T08:17:17;10.15;;;5.90;;
52972;SDS011;38837;48.916;2.336;2024-01-15T08:19:19;8.45;;;5.43;;
52972;SDS011;38837;48.916;2.336;2024-01-15T08:21:23;7.55;;;4.65;;
52972;SDS011;38837;48.916;2.336;2024-01-15T08:23:25;7.10;;;5.22;;
52972;SDS011;38837;48.916;2.336;2024-01-15T08:25:29;8.75;;;5.90;;
52972;SDS011;38837;48.916;2.336;2024-01-15T08:27:31;9.18;;;5.63;;
52972;SDS011;38837;48.916;2.336;2024-01-15T08:29:33;8.75;;;5.80;;
52972;SDS011;38837;48.916;2.336;2024-01-15T08:31:36;8.45;;;5.63;;
52972;SDS011;38837;48.916;2.336;2024-01-15T08:33:38;7.28;;;5.28;;
52972;SDS011;38837;48.916;2.336;2024-01-15T08:35:40;9.80;;;5.55;;
52972;SDS011;38837;48.916;2.336;2024-01-15T08:37:42;7.80;;;5.60;;
52972;SDS011;38837;48.916;2.336;2024-01-15T08:39:44;7.45;;;4.70;;
52972;SDS011;38837;48.916;2.336;2024-01-15T08:41:46;9.25;;;5.50;;
52972;SDS011;38837;48.916;2.336;2024-01-15T08:43:47;7.68;;;5.57;;
52972;SDS011;38837;48.916;2.336;2024-01-15T08:45:49;8.05;;;5.15;;
52972;SDS011;38837;48.916;2.336;2024-01-15T08:47:52;7.53;;;5.65;;
52972;SDS011;38837;48.916;2.336;2024-01-15T08:49:54;8.57;;;5.43;;
52972;SDS011;38837;48.916;2.336;2024-01-15T08:51:56;7.10;;;5.05;;
52972;SDS011;38837;48.916;2.336;2024-01-15T08:53:57;8.82;;;5.90;;
52972;SDS011;38837;48.916;2.336;2024-01-15T08:56:00;11.23;;;6.07;;
52972;SDS011;38837;48.916;2.336;2024-01-15T08:58:02;7.15;;;4.85;;
52972;SDS011;38837;48.916;2.336;2024-01-15T09:00:04;8.25;;;5.07;;
52972;SDS011;38837;48.916;2.336;2024-01-15T09:02:09;15.80;;;6.03;;
52972;SDS011;38837;48.916;2.336;2024-01-15T09:04:11;9.48;;;5.97;;
52972;SDS011;38837;48.916;2.336;2024-01-15T09:06:13;8.43;;;5.40;;
52972;SDS011;38837;48.916;2.336;2024-01-15T09:08:15;7.53;;;5.53;;
52972;SDS011;38837;48.916;2.336;2024-01-15T09:10:18;8.93;;;5.80;;
52972;SDS011;38837;48.916;2.336;2024-01-15T09:12:20;7.80;;;5.30;;
52972;SDS011;38837;48.916;2.336;2024-01-15T09:14:23;9.80;;;5.63;;
52972;SDS011;38837;48.916;2.336;2024-01-15T09:16:37;8.35;;;5.32;;
52972;SDS011;38837;48.916;2.336;2024-01-15T09:18:39;8.50;;;5.53;;
52972;SDS011;38837;48.916;2.336;2024-01-15T09:20:41;8.45;;;5.55;;
52972;SDS011;38837;48.916;2.336;2024-01-15T09:22:43;8.30;;;5.50;;
52972;SDS011;38837;48.916;2.336;2024-01-15T09:24:45;8.13;;;5.07;;
52972;SDS011;38837;48.916;2.336;2024-01-15T09:26:48;8.95;;;5.50;;
52972;SDS011;38837;48.916;2.336;2024-01-15T09:28:49;6.78;;;4.93;;
52972;SDS011;38837;48.916;2.336;2024-01-15T09:30:51;7.93;;;5.55;;
52972;SDS011;38837;48.916;2.336;2024-01-15T09:32:53;7.85;;;5.05;;
52972;SDS011;38837;48.916;2.336;2024-01-15T09:34:55;7.43;;;4.97;;
52972;SDS011;38837;48.916;2.336;2024-01-15T09:36:57;8.70;;;5.40;;
52972;SDS011;38837;48.916;2.336;2024-01-15T09:39:01;8.50;;;5.30;;
52972;SDS011;38837;48.916;2.336;2024-01-15T09:41:03;8.13;;;5.18;;
52972;SDS011;38837;48.916;2.336;2024-01-15T09:43:05;9.45;;;4.82;;
52972;SDS011;38837;48.916;2.336;2024-01-15T09:45:07;6.80;;;4.90;;
52972;SDS011;38837;48.916;2.336;2024-01-15T09:47:10;6.80;;;5.10;;
52972;SDS011;38837;48.916;2.336;2024-01-15T09:49:13;8.98;;;5.88;;
52972;SDS011;38837;48.916;2.336;2024-01-15T09:51:15;10.13;;;5.57;;
52972;SDS011;38837;48.916;2.336;2024-01-15T09:53:18;7.30;;;4.85;;
52972;SDS011;38837;48.916;2.336;2024-01-15T09:55:21;7.88;;;4.93;;
52972;SDS011;38837;48.916;2.336;2024-01-15T09:57:24;7.60;;;4.85;;
52972;SDS011;38837;48.916;2.336;2024-01-15T09:59:26;7.07;;;4.13;;
52972;SDS011;38837;48.916;2.336;2024-01-15T10:01:29;8.40;;;5.10;;
52972;SDS011;38837;48.916;2.336;2024-01-15T10:03:33;7.82;;;5.18;;
52972;SDS011;38837;48.916;2.336;2024-01-15T10:05:35;6.50;;;4.65;;
52972;SDS011;38837;48.916;2.336;2024-01-15T10:07:37;8.93;;;5.18;;
52972;SDS011;38837;48.916;2.336;2024-01-15T10:09:41;9.05;;;4.97;;
52972;SDS011;38837;48.916;2.336;2024-01-15T10:11:43;6.22;;;4.68;;
52972;SDS011;38837;48.916;2.336;2024-01-15T10:13:46;7.30;;;4.50;;
52972;SDS011;38837;48.916;2.336;2024-01-15T10:15:51;7.70;;;4.78;;
52972;SDS011;38837;48.916;2.336;2024-01-15T10:17:54;6.93;;;4.43;;
52972;SDS011;38837;48.916;2.336;2024-01-15T10:19:56;7.25;;;4.38;;
52972;SDS011;38837;48.916;2.336;2024-01-15T10:21:58;12.27;;;4.80;;
52972;SDS011;38837;48.916;2.336;2024-01-15T10:24:02;7.68;;;4.90;;
52972;SDS011;38837;48.916;2.336;2024-01-15T10:26:04;7.72;;;4.88;;
52972;SDS011;38837;48.916;2.336;2024-01-15T10:28:06;7.45;;;4.75;;
52972;SDS011;38837;48.916;2.336;2024-01-15T10:30:08;6.95;;;4.22;;
52972;SDS011;38837;48.916;2.336;2024-01-15T10:32:11;5.85;;;4.30;;
52972;SDS011;38837;48.916;2.336;2024-01-15T10:34:13;6.72;;;4.38;;
52972;SDS011;38837;48.916;2.336;2024-01-15T10:36:17;6.35;;;4.00;;
52972;SDS011;38837;48.916;2.336;2024-01-15T10:38:20;9.05;;;4.40;;
52972;SDS011;38837;48.916;2.336;2024-01-15T10:40:26;8.68;;;4.30;;
52972;SDS011;38837;48.916;2.336;2024-01-15T10:42:28;6.93;;;4.30;;
52972;SDS011;38837;48.916;2.336;2024-01-15T10:44:30;6.15;;;4.03;;
52972;SDS011;38837;48.916;2.336;2024-01-15T10:46:32;5.75;;;3.75;;
52972;SDS011;38837;48.916;2.336;2024-01-15T10:48:35;8.38;;;4.10;;
52972;SDS011;38837;48.916;2.336;2024-01-15T10:50:38;6.20;;;4.28;;
52972;SDS011;38837;48.916;2.336;2024-01-15T10:52:40;7.00;;;4.13;;
52972;SDS011;38837;48.916;2.336;2024-01-15T10:54:43;6.80;;;3.78;;
52972;SDS011;38837;48.916;2.336;2024-01-15T10:56:46;4.57;;;3.17;;
52972;SDS011;38837;48.916;2.336;2024-01-15T10:58:49;4.63;;;3.22;;
52972;SDS011;38837;48.916;2.336;2024-01-15T11:00:52;5.95;;;3.80;;
52972;SDS011;38837;48.916;2.336;2024-01-15T11:02:54;4.78;;;3.60;;
52972;SDS011;38837;48.916;2.336;2024-01-15T11:04:57;5.55;;;3.25;;
52972;SDS011;38837;48.916;2.336;2024-01-15T11:07:01;7.05;;;3.05;;
52972;SDS011;38837;48.916;2.336;2024-01-15T11:09:05;5.25;;;2.90;;
52972;SDS011;38837;48.916;2.336;2024-01-15T11:13:20;4.50;;;2.85;;
52972;SDS011;38837;48.916;2.336;2024-01-15T11:15:30;4.95;;;2.83;;
52972;SDS011;38837;48.916;2.336;2024-01-15T11:17:57;10.02;;;2.70;;
52972;SDS011;38837;48.916;2.336;2024-01-15T11:20:05;5.32;;;3.10;;
52972;SDS011;38837;48.916;2.336;2024-01-15T11:22:08;4.25;;;3.15;;
52972;SDS011;38837;48.916;2.336;2024-01-15T11:24:11;4.07;;;2.70;;
52972;SDS011;38837;48.916;2.336;2024-01-15T11:26:43;4.80;;;2.35;;
52972;SDS011;38837;48.916;2.336;2024-01-15T11:28:49;4.05;;;2.33;;
52972;SDS011;38837;48.916;2.336;2024-01-15T11:30:50;3.28;;;2.20;;
52972;SDS011;38837;48.916;2.336;2024-01-15T11:35:01;4.25;;;2.00;;
52972;SDS011;38837;48.916;2.336;2024-01-15T11:37:05;2.75;;;2.00;;
52972;SDS011;38837;48.916;2.336;2024-01-15T11:41:34;3.45;;;1.90;;
52972;SDS011;38837;48.916;2.336;2024-01-15T11:43:36;5.75;;;2.33;;
52972;SDS011;38837;48.916;2.336;2024-01-15T11:45:38;5.88;;;1.70;;
52972;SDS011;38837;48.916;2.336;2024-01-15T11:50:00;3.60;;;1.67;;
52972;SDS011;38837;48.916;2.336;2024-01-15T11:52:03;4.50;;;1.85;;
52972;SDS011;38837;48.916;2.336;2024-01-15T11:54:06;3.15;;;1.80;;
52972;SDS011;38837;48.916;2.336;2024-01-15T11:56:16;3.28;;;2.03;;
52972;SDS011;38837;48.916;2.336;2024-01-15T11:58:18;6.03;;;1.70;;
52972;SDS011;38837;48.916;2.336;2024-01-15T12:00:23;4.97;;;2.03;;
52972;SDS011;38837;48.916;2.336;2024-01-15T12:02:25;5.70;;;2.03;;
52972;SDS011;38837;48.916;2.336;2024-01-15T12:04:27;2.35;;;1.60;;
52972;SDS011;38837;48.916;2.336;2024-01-15T12:06:29;3.50;;;1.80;;
52972;SDS011;38837;48.916;2.336;2024-01-15T12:08:31;2.70;;;1.33;;
52972;SDS011;38837;48.916;2.336;2024-01-15T12:10:33;3.38;;;1.63;;
52972;SDS011;38837;48.916;2.336;2024-01-15T12:12:47;4.70;;;1.48;;
52972;SDS011;38837;48.916;2.336;2024-01-15T12:14:53;2.75;;;1.67;;
52972;SDS011;38837;48.916;2.336;2024-01-15T12:16:55;3.90;;;1.60;;
52972;SDS011;38837;48.916;2.336;2024-01-15T12:18:57;4.22;;;1.83;;
52972;SDS011;38837;48.916;2.336;2024-01-15T12:20:59;4.60;;;1.40;;
52972;SDS011;38837;48.916;2.336;2024-01-15T12:23:01;3.70;;;1.30;;
52972;SDS011;38837;48.916;2.336;2024-01-15T12:25:09;2.80;;;1.52;;
52972;SDS011;38837;48.916;2.336;2024-01-15T12:27:11;3.30;;;1.48;;
52972;SDS011;38837;48.916;2.336;2024-01-15T12:29:13;2.15;;;1.38;;